createdAt,value
2022-12-05T00:02:01.997Z,5.40
2022-12-05T00:04:48.882Z,5.30
2022-12-05T00:07:36.602Z,5.30
2022-12-05T00:10:23.699Z,5.20
2022-12-05T00:13:10.688Z,5.20
2022-12-05T00:15:57.368Z,5.20
2022-12-05T00:18:44.082Z,5.20
2022-12-05T00:21:34.030Z,5.20
2022-12-05T00:24:22.149Z,5.20
2022-12-05T00:27:08.410Z,5.20
2022-12-05T00:29:55.114Z,5.10
2022-12-05T00:32:42.011Z,5.10
2022-12-05T00:35:28.360Z,5.10
2022-12-05T00:38:14.709Z,5.10
2022-12-05T00:41:05.074Z,5.10
2022-12-05T00:43:52.469Z,5.10
2022-12-05T00:46:39.147Z,5.10
2022-12-05T00:49:26.051Z,5.10
2022-12-05T00:52:12.498Z,5.20
2022-12-05T00:54:58.824Z,5.10
2022-12-05T00:57:46.667Z,5.20
2022-12-05T01:00:33.281Z,5.10
2022-12-05T01:03:19.703Z,5.00
2022-12-05T01:06:07.614Z,4.90
2022-12-05T01:08:55.555Z,4.80
2022-12-05T01:11:42.525Z,4.80
2022-12-05T01:14:30.517Z,4.80
2022-12-05T01:17:16.903Z,4.80
2022-12-05T01:20:03.538Z,4.80
2022-12-05T01:22:50.084Z,4.80
2022-12-05T01:25:40.010Z,4.80
2022-12-05T01:28:26.522Z,4.80
2022-12-05T01:31:22.047Z,4.80
2022-12-05T01:34:11.445Z,5.00
2022-12-05T01:36:58.110Z,4.90
2022-12-05T01:39:44.503Z,4.90
2022-12-05T01:42:30.934Z,4.90
2022-12-05T01:45:22.102Z,5.00
2022-12-05T01:48:16.216Z,5.00
2022-12-05T01:51:03.695Z,5.10
2022-12-05T01:53:49.952Z,5.10
2022-12-05T01:56:37.554Z,5.00
2022-12-05T01:59:25.854Z,4.90
2022-12-05T02:02:13.369Z,4.90
2022-12-05T02:05:06.325Z,5.00
2022-12-05T02:07:54.216Z,4.90
2022-12-05T02:10:43.772Z,4.90
2022-12-05T02:13:48.927Z,5.00
2022-12-05T02:16:50.037Z,4.90
2022-12-05T02:19:59.684Z,4.90
2022-12-05T02:23:26.509Z,4.90
2022-12-05T02:26:48.968Z,5.00
2022-12-05T02:29:54.845Z,4.90
2022-12-05T02:32:52.856Z,4.80
2022-12-05T02:35:49.333Z,4.80
2022-12-05T02:38:41.752Z,4.90
2022-12-05T02:41:33.007Z,4.80
2022-12-05T02:44:25.054Z,4.80
2022-12-05T02:47:14.674Z,4.80
2022-12-05T02:50:02.624Z,4.90
2022-12-05T02:52:51.866Z,4.80
2022-12-05T02:55:41.173Z,4.90
2022-12-05T02:58:34.728Z,5.00
2022-12-05T03:01:24.954Z,4.90
2022-12-05T03:04:14.801Z,5.00
2022-12-05T03:07:04.455Z,5.00
2022-12-05T03:09:56.561Z,5.10
2022-12-05T03:12:48.739Z,5.00
2022-12-05T03:15:39.418Z,5.10
2022-12-05T03:18:29.327Z,5.20
2022-12-05T03:21:26.597Z,5.10
2022-12-05T03:24:15.647Z,5.20
2022-12-05T03:27:09.916Z,5.20
2022-12-05T03:30:01.826Z,5.20
2022-12-05T03:32:55.945Z,5.20
2022-12-05T03:35:46.738Z,5.20
2022-12-05T03:38:40.148Z,5.20
2022-12-05T03:41:34.426Z,5.20
2022-12-05T03:44:27.010Z,5.10
2022-12-05T03:47:18.574Z,5.00
2022-12-05T03:50:12.039Z,5.10
2022-12-05T03:56:13.501Z,5.10
2022-12-05T03:59:04.441Z,5.10
2022-12-05T04:01:54.028Z,5.20
2022-12-05T04:04:46.635Z,5.10
2022-12-05T04:07:37.026Z,5.00
2022-12-05T04:10:30.250Z,5.00
2022-12-05T04:13:23.285Z,4.90
2022-12-05T04:16:31.401Z,4.90
2022-12-05T04:19:21.988Z,4.90
2022-12-05T04:22:07.607Z,5.00
2022-12-05T04:25:14.273Z,5.00
2022-12-05T04:28:15.529Z,4.90
2022-12-05T04:31:09.428Z,4.80
2022-12-05T04:34:00.640Z,4.80
2022-12-05T04:36:52.821Z,4.70
2022-12-05T04:39:45.626Z,4.70
2022-12-05T04:42:35.310Z,4.60
2022-12-05T04:45:23.938Z,4.60
2022-12-05T04:48:15.411Z,4.50
2022-12-05T04:51:04.276Z,4.50
2022-12-05T04:53:55.843Z,4.40
2022-12-05T04:56:44.986Z,4.30
2022-12-05T04:59:31.774Z,4.30
2022-12-05T05:02:22.748Z,4.30
2022-12-05T05:05:14.460Z,4.30
2022-12-05T05:08:01.941Z,4.50
2022-12-05T05:10:58.036Z,4.70
2022-12-05T05:13:44.657Z,4.80
2022-12-05T05:16:33.060Z,4.80
2022-12-05T05:19:19.857Z,5.00
2022-12-05T05:22:07.555Z,5.10
2022-12-05T05:24:54.138Z,5.00
2022-12-05T05:27:40.473Z,4.80
2022-12-05T05:30:27.145Z,4.60
2022-12-05T05:33:13.842Z,4.60
2022-12-05T05:36:04.488Z,4.60
2022-12-05T05:38:53.993Z,4.40
2022-12-05T05:41:40.440Z,4.40
2022-12-05T05:44:26.849Z,4.50
2022-12-05T05:47:13.110Z,4.50
2022-12-05T05:49:59.876Z,4.60
2022-12-05T05:52:46.609Z,4.70
2022-12-05T05:55:34.292Z,4.90
2022-12-05T05:58:20.929Z,5.00
2022-12-05T06:01:08.622Z,5.00
2022-12-05T06:03:55.526Z,5.10
2022-12-05T06:06:42.237Z,5.00
2022-12-05T06:09:28.684Z,5.20
2022-12-05T06:12:16.358Z,5.20
2022-12-05T06:15:02.583Z,5.20
2022-12-05T06:17:48.968Z,5.30
2022-12-05T06:20:35.496Z,5.40
2022-12-05T06:23:22.367Z,5.40
2022-12-05T06:26:13.149Z,5.30
2022-12-05T06:29:01.121Z,5.30
2022-12-05T06:31:47.733Z,5.30
2022-12-05T06:34:35.499Z,5.40
2022-12-05T06:37:22.291Z,5.30
2022-12-05T06:40:10.139Z,5.30
2022-12-05T06:42:56.827Z,5.20
2022-12-05T06:45:44.808Z,5.00
2022-12-05T06:48:32.075Z,5.10
2022-12-05T06:51:18.830Z,5.20
2022-12-05T06:54:05.331Z,5.30
2022-12-05T06:56:51.927Z,5.40
2022-12-05T06:59:38.378Z,5.30
2022-12-05T07:02:25.175Z,5.40
2022-12-05T07:05:12.367Z,5.40
2022-12-05T07:07:59.280Z,5.50
2022-12-05T07:10:53.231Z,5.50
2022-12-05T07:13:39.927Z,5.40
2022-12-05T07:16:26.895Z,5.40
2022-12-05T07:19:15.256Z,5.40
2022-12-05T07:22:01.899Z,5.30
2022-12-05T07:24:49.064Z,5.20
2022-12-05T07:27:35.806Z,5.40
2022-12-05T07:30:22.170Z,5.40
2022-12-05T07:33:08.467Z,5.50
2022-12-05T07:36:00.564Z,5.40
2022-12-05T07:38:47.545Z,5.50
2022-12-05T07:41:35.674Z,5.40
2022-12-05T07:44:27.299Z,5.50
2022-12-05T07:47:13.700Z,5.30
2022-12-05T07:50:00.610Z,5.40
2022-12-05T07:52:48.606Z,5.20
2022-12-05T07:55:35.261Z,5.30
2022-12-05T07:58:21.657Z,5.00
2022-12-05T08:01:09.875Z,4.70
2022-12-05T08:03:58.426Z,4.70
2022-12-05T08:06:44.708Z,4.80
2022-12-05T08:09:32.468Z,4.90
2022-12-05T08:12:18.903Z,5.10
2022-12-05T08:15:06.144Z,5.10
2022-12-05T08:17:52.846Z,5.20
2022-12-05T08:20:39.311Z,5.30
2022-12-05T08:23:25.742Z,5.40
2022-12-05T08:26:15.441Z,5.40
2022-12-05T08:29:04.527Z,5.40
2022-12-05T08:31:52.463Z,5.50
2022-12-05T08:34:38.788Z,5.60
2022-12-05T08:37:25.233Z,5.60
2022-12-05T08:40:12.624Z,5.70
2022-12-05T08:43:00.677Z,5.70
2022-12-05T08:45:51.139Z,5.70
2022-12-05T08:48:38.089Z,5.80
2022-12-05T08:51:25.048Z,5.80
2022-12-05T08:54:12.105Z,5.80
2022-12-05T08:56:59.291Z,5.60
2022-12-05T08:59:47.299Z,5.50
2022-12-05T09:02:34.904Z,5.40
2022-12-05T09:05:28.171Z,5.40
2022-12-05T09:08:15.315Z,5.40
2022-12-05T09:11:06.381Z,5.40
2022-12-05T09:13:54.613Z,5.50
2022-12-05T09:16:45.524Z,5.60
2022-12-05T09:19:32.033Z,5.60
2022-12-05T09:22:19.798Z,5.60
2022-12-05T09:25:07.475Z,5.50
2022-12-05T09:27:54.763Z,5.40
2022-12-05T09:30:41.484Z,5.50
2022-12-05T09:33:30.176Z,5.50
2022-12-05T09:36:19.288Z,5.60
2022-12-05T09:39:08.266Z,5.60
2022-12-05T09:42:18.414Z,5.70
2022-12-05T09:45:14.483Z,5.70
2022-12-05T09:48:05.868Z,5.70
2022-12-05T09:50:58.739Z,5.70
2022-12-05T09:53:46.171Z,5.70
2022-12-05T09:56:32.822Z,5.70
2022-12-05T09:59:21.278Z,5.80
2022-12-05T10:02:27.543Z,5.90
2022-12-05T10:05:20.288Z,5.90
2022-12-05T10:08:19.216Z,5.80
2022-12-05T10:11:14.571Z,5.80
2022-12-05T10:14:10.043Z,5.70
2022-12-05T10:17:00.105Z,5.80
2022-12-05T10:19:48.521Z,5.80
2022-12-05T10:22:41.775Z,5.60
2022-12-05T10:25:32.675Z,5.50
2022-12-05T10:28:28.176Z,5.60
2022-12-05T10:31:19.239Z,5.70
2022-12-05T10:34:14.842Z,5.60
2022-12-05T10:37:09.901Z,5.60
2022-12-05T10:39:56.678Z,5.60
2022-12-05T10:42:45.367Z,5.60
2022-12-05T10:45:31.852Z,5.50
2022-12-05T10:48:20.205Z,5.70
2022-12-05T10:51:08.343Z,5.70
2022-12-05T10:53:55.471Z,5.70
2022-12-05T10:56:44.100Z,5.80
2022-12-05T10:59:47.415Z,5.90
2022-12-05T11:02:36.830Z,6.10
2022-12-05T11:05:31.035Z,6.10
2022-12-05T11:08:48.157Z,6.20
2022-12-05T11:11:33.274Z,6.30
2022-12-05T11:14:24.700Z,6.40
2022-12-05T11:17:25.552Z,6.50
2022-12-05T11:20:38.262Z,6.60
2022-12-05T11:23:27.893Z,6.60
2022-12-05T11:26:20.679Z,6.70
2022-12-05T11:29:35.401Z,6.80
2022-12-05T11:32:24.939Z,6.80
2022-12-05T11:35:24.203Z,6.90
2022-12-05T11:38:13.537Z,6.90
2022-12-05T11:41:13.038Z,7.00
2022-12-05T11:44:16.396Z,7.20
2022-12-05T11:47:17.556Z,7.30
2022-12-05T11:50:26.625Z,7.40
2022-12-05T11:54:01.257Z,7.30
2022-12-05T11:56:53.271Z,7.30
2022-12-05T12:00:05.392Z,7.20
2022-12-05T12:03:20.671Z,7.20
2022-12-05T12:06:28.378Z,7.10
2022-12-05T12:09:30.361Z,7.10
2022-12-05T12:12:29.849Z,6.90
2022-12-05T12:15:32.465Z,6.90
2022-12-05T12:18:29.646Z,6.90
2022-12-05T12:21:19.430Z,6.90
2022-12-05T12:24:18.023Z,7.00
2022-12-05T12:27:16.767Z,7.00
2022-12-05T12:30:12.293Z,7.00
2022-12-05T12:33:07.412Z,7.00
2022-12-05T12:36:02.606Z,7.10
2022-12-05T12:39:16.356Z,7.10
2022-12-05T12:42:13.622Z,7.20
2022-12-05T12:45:38.751Z,7.20
2022-12-05T12:48:54.546Z,7.10
2022-12-05T12:51:53.069Z,7.10
2022-12-05T12:55:04.046Z,7.20
2022-12-05T12:58:04.283Z,7.20
2022-12-05T13:01:00.808Z,7.10
2022-12-05T13:03:52.064Z,7.10
2022-12-05T13:06:46.044Z,7.10
2022-12-05T13:09:37.203Z,7.10
2022-12-05T13:12:29.254Z,7.10
2022-12-05T13:15:20.954Z,7.10
2022-12-05T13:18:13.623Z,7.20
2022-12-05T13:21:02.855Z,7.20
2022-12-05T13:23:52.063Z,7.20
2022-12-05T13:26:47.146Z,7.30
2022-12-05T13:29:36.236Z,7.30
2022-12-05T13:32:30.586Z,7.30
2022-12-05T13:35:38.509Z,7.30
2022-12-05T13:38:48.037Z,7.30
2022-12-05T13:42:02.607Z,7.20
2022-12-05T13:44:53.707Z,7.20
2022-12-05T13:47:51.586Z,7.20
2022-12-05T13:50:46.114Z,7.20
2022-12-05T13:53:38.615Z,7.20
2022-12-05T13:56:28.338Z,7.20
2022-12-05T13:59:53.797Z,7.20
2022-12-05T14:02:56.220Z,7.20
2022-12-05T14:05:46.962Z,7.20
2022-12-05T14:08:53.679Z,7.20
2022-12-05T14:11:40.214Z,7.20
2022-12-05T14:14:56.577Z,7.20
2022-12-05T14:17:46.044Z,7.30
2022-12-05T14:20:49.507Z,7.30
2022-12-05T14:23:56.896Z,7.30
2022-12-05T14:26:59.600Z,7.40
2022-12-05T14:29:59.735Z,7.40
2022-12-05T14:32:48.485Z,7.40
2022-12-05T14:35:43.357Z,7.40
2022-12-05T14:38:32.021Z,7.40
2022-12-05T14:41:37.008Z,7.40
2022-12-05T14:44:24.478Z,7.30
2022-12-05T14:47:20.598Z,7.30
2022-12-05T14:50:39.543Z,7.30
2022-12-05T14:53:36.759Z,7.20
2022-12-05T14:56:26.222Z,7.10
2022-12-05T14:59:24.642Z,7.10
2022-12-05T15:02:19.999Z,7.00
2022-12-05T15:05:21.969Z,7.00
2022-12-05T15:08:12.700Z,7.00
2022-12-05T15:11:01.525Z,7.00
2022-12-05T15:13:48.525Z,7.00
2022-12-05T15:16:38.342Z,7.00
2022-12-05T15:19:29.924Z,7.00
2022-12-05T15:22:19.630Z,6.90
2022-12-05T15:25:26.792Z,6.90
2022-12-05T15:28:20.748Z,7.00
2022-12-05T15:31:15.980Z,7.10
2022-12-05T15:34:08.108Z,7.10
2022-12-05T15:36:59.084Z,7.00
2022-12-05T15:39:55.760Z,7.10
2022-12-05T15:42:44.538Z,7.10
2022-12-05T15:45:32.350Z,7.10
2022-12-05T15:48:22.858Z,7.10
2022-12-05T15:51:10.240Z,7.10
2022-12-05T15:54:01.412Z,7.10
2022-12-05T15:56:51.937Z,7.10
2022-12-05T15:59:41.655Z,7.10
2022-12-05T16:02:38.999Z,7.00
2022-12-05T16:05:30.644Z,7.00
2022-12-05T16:08:17.710Z,7.00
2022-12-05T16:11:09.339Z,6.90
2022-12-05T16:13:59.126Z,6.90
2022-12-05T16:16:46.224Z,6.90
2022-12-05T16:19:35.767Z,6.90
2022-12-05T16:22:24.327Z,6.90
2022-12-05T16:25:15.416Z,6.90
2022-12-05T16:28:15.641Z,6.90
2022-12-05T16:31:05.345Z,6.90
2022-12-05T16:34:01.504Z,6.90
2022-12-05T16:36:51.677Z,7.00
2022-12-05T16:39:40.770Z,6.90
2022-12-05T16:42:28.761Z,6.80
2022-12-05T16:45:43.409Z,6.80
2022-12-05T16:48:31.067Z,6.90
2022-12-05T16:51:19.753Z,6.80
2022-12-05T16:54:06.101Z,6.80
2022-12-05T16:56:52.823Z,6.80
2022-12-05T16:59:41.955Z,6.90
2022-12-05T17:02:30.396Z,6.90
2022-12-05T17:05:17.463Z,6.90
2022-12-05T17:08:04.323Z,6.90
2022-12-05T17:10:51.815Z,6.80
2022-12-05T17:13:38.259Z,6.80
2022-12-05T17:16:26.581Z,6.80
2022-12-05T17:19:14.830Z,6.80
2022-12-05T17:22:02.005Z,6.80
2022-12-05T17:24:48.376Z,6.80
2022-12-05T17:27:35.822Z,6.80
2022-12-05T17:30:22.365Z,6.70
2022-12-05T17:33:11.831Z,6.60
2022-12-05T17:36:00.046Z,6.60
2022-12-05T17:38:46.461Z,6.70
2022-12-05T17:41:32.914Z,6.80
2022-12-05T17:44:19.834Z,6.80
2022-12-05T17:47:08.198Z,6.70
2022-12-05T17:49:55.319Z,6.50
2022-12-05T17:52:43.543Z,6.50
2022-12-05T17:55:30.866Z,6.50
2022-12-05T17:58:18.214Z,6.40
2022-12-05T18:01:05.076Z,6.30
2022-12-05T18:03:52.142Z,6.20
2022-12-05T18:06:39.347Z,6.10
2022-12-05T18:09:27.524Z,6.00
2022-12-05T18:12:13.934Z,5.90
2022-12-05T18:15:00.710Z,5.90
2022-12-05T18:17:47.284Z,5.80
2022-12-05T18:20:33.920Z,5.90
2022-12-05T18:23:20.636Z,5.90
2022-12-05T18:26:10.719Z,6.00
2022-12-05T18:28:58.822Z,5.90
2022-12-05T18:31:45.337Z,6.00
2022-12-05T18:34:31.735Z,6.10
2022-12-05T18:37:18.367Z,6.10
2022-12-05T18:40:05.501Z,6.20
2022-12-05T18:42:53.650Z,6.20
2022-12-05T18:45:40.071Z,6.20
2022-12-05T18:48:47.131Z,6.20
2022-12-05T18:51:33.926Z,6.10
2022-12-05T18:54:20.778Z,6.10
2022-12-05T18:57:07.757Z,6.20
2022-12-05T18:59:55.705Z,6.10
2022-12-05T19:02:42.411Z,6.20
2022-12-05T19:05:31.534Z,6.20
2022-12-05T19:08:18.349Z,6.20
2022-12-05T19:11:05.449Z,6.20
2022-12-05T19:13:55.616Z,6.20
2022-12-05T19:16:43.660Z,6.20
2022-12-05T19:19:31.016Z,6.10
2022-12-05T19:22:17.639Z,6.10
2022-12-05T19:25:04.055Z,6.20
2022-12-05T19:27:50.473Z,6.10
2022-12-05T19:30:36.795Z,6.10
2022-12-05T19:33:24.551Z,5.90
2022-12-05T19:36:13.705Z,5.80
2022-12-05T19:39:00.477Z,5.70
2022-12-05T19:41:47.233Z,5.60
2022-12-05T19:44:33.709Z,5.50
2022-12-05T19:47:20.265Z,5.50
2022-12-05T19:50:09.452Z,5.50
2022-12-05T19:52:56.158Z,5.50
2022-12-05T19:55:42.457Z,5.30
2022-12-05T19:58:29.557Z,5.20
2022-12-05T20:01:18.609Z,5.10
2022-12-05T20:04:07.798Z,5.10
2022-12-05T20:06:55.652Z,5.20
2022-12-05T20:09:42.385Z,5.30
2022-12-05T20:12:28.650Z,5.40
2022-12-05T20:15:15.592Z,5.50
2022-12-05T20:18:02.050Z,5.50
2022-12-05T20:20:57.607Z,5.70
2022-12-05T20:23:45.632Z,5.60
2022-12-05T20:26:33.761Z,5.50
2022-12-05T20:29:20.155Z,5.50
2022-12-05T20:32:06.570Z,5.60
2022-12-05T20:34:53.100Z,5.60
2022-12-05T20:37:39.592Z,5.60
2022-12-05T20:40:27.378Z,5.60
2022-12-05T20:43:13.659Z,5.50
2022-12-05T20:46:05.046Z,5.40
2022-12-05T20:48:53.129Z,5.40
2022-12-05T20:51:42.779Z,5.50
2022-12-05T20:54:29.141Z,5.50
2022-12-05T20:57:16.987Z,5.50
2022-12-05T21:00:03.999Z,5.50
2022-12-05T21:02:50.358Z,5.50
2022-12-05T21:05:37.266Z,5.50
2022-12-05T21:08:24.592Z,5.60
2022-12-05T21:11:13.254Z,5.60
2022-12-05T21:14:04.773Z,5.30
2022-12-05T21:16:52.654Z,5.20
2022-12-05T21:19:39.390Z,5.00
2022-12-05T21:22:26.254Z,4.90
2022-12-05T21:25:12.504Z,4.80
2022-12-05T21:27:58.736Z,4.80
2022-12-05T21:30:46.838Z,4.80
2022-12-05T21:33:33.525Z,4.90
2022-12-05T21:36:20.798Z,4.90
2022-12-05T21:39:07.787Z,5.00
2022-12-05T21:41:54.504Z,5.10
2022-12-05T21:44:40.832Z,5.30
2022-12-05T21:47:29.182Z,5.40
2022-12-05T21:50:16.003Z,5.50
2022-12-05T21:53:02.635Z,5.50
2022-12-05T21:55:49.538Z,5.60
2022-12-05T21:58:41.884Z,5.60
2022-12-05T22:01:29.687Z,5.70
2022-12-05T22:04:17.585Z,5.70
2022-12-05T22:07:03.966Z,5.80
2022-12-05T22:09:50.397Z,5.90
2022-12-05T22:12:37.362Z,5.90
2022-12-05T22:15:23.623Z,5.90
2022-12-05T22:18:11.024Z,5.90
2022-12-05T22:21:00.906Z,5.90
2022-12-05T22:23:47.465Z,6.00
2022-12-05T22:26:33.920Z,5.90
2022-12-05T22:29:20.426Z,5.90
2022-12-05T22:32:07.089Z,5.70
2022-12-05T22:34:53.544Z,5.50
2022-12-05T22:37:41.466Z,5.50
2022-12-05T22:40:28.042Z,5.50
2022-12-05T22:43:14.428Z,5.50
2022-12-05T22:46:06.056Z,5.50
2022-12-05T22:48:52.834Z,5.40
2022-12-05T22:51:39.259Z,5.20
2022-12-05T22:54:30.176Z,5.20
2022-12-05T22:57:16.834Z,5.00
2022-12-05T23:00:03.312Z,5.00
2022-12-05T23:02:49.674Z,5.00
2022-12-05T23:05:40.637Z,5.10
2022-12-05T23:08:27.111Z,5.10
2022-12-05T23:11:16.027Z,5.20
2022-12-05T23:14:02.886Z,5.20
2022-12-05T23:16:50.563Z,5.20
2022-12-05T23:19:37.054Z,5.10
2022-12-05T23:22:23.377Z,5.00
2022-12-05T23:25:09.826Z,4.90
2022-12-05T23:27:57.598Z,4.80
2022-12-05T23:30:43.946Z,4.60
2022-12-05T23:33:30.141Z,4.50
2022-12-05T23:36:16.828Z,4.50
2022-12-05T23:39:04.235Z,4.40
2022-12-05T23:41:50.852Z,4.40
2022-12-05T23:44:38.643Z,4.30
2022-12-05T23:47:25.190Z,4.20
2022-12-05T23:50:11.784Z,4.30
2022-12-05T23:52:58.438Z,4.40
2022-12-05T23:55:44.849Z,4.50
2022-12-05T23:58:31.882Z,4.40
